Terminal Aerodrome Forecast
Issued by NWS Albuquerque, NM

Home | Current Version | Previous Version | Text Only | Print | Product List | Glossary On
Versions: 1 2 3 4 5 6 7 8 9 10 11 12
000
FTUS45 KABQ 071126
TAFABQ
TAF
KABQ 071126Z 0712/0812 15006KT P6SM SCT035 SCT050
      TEMPO 0714/0718 BKN040
     FM071800 30010KT P6SM FEW035 SCT050
     FM072130 33011KT P6SM FEW050 SCT250
     FM080000 01011KT P6SM SCT250
     FM080700 08013KT P6SM SCT200=

USA.gov is the U.S. government's official web portal to all federal, state and local government web resources and services.